createdAt,value
2018-05-14T00:00:52.476Z,99.90
2018-05-14T00:03:20.106Z,99.90
2018-05-14T00:05:47.772Z,99.90
2018-05-14T00:08:15.324Z,99.90
2018-05-14T00:10:42.852Z,99.90
2018-05-14T00:13:10.454Z,99.90
2018-05-14T00:15:37.978Z,99.90
2018-05-14T00:18:05.564Z,99.90
2018-05-14T00:20:33.303Z,99.90
2018-05-14T00:23:00.885Z,99.90
2018-05-14T00:25:28.441Z,99.90
2018-05-14T00:27:55.991Z,99.90
2018-05-14T00:30:23.529Z,99.90
2018-05-14T00:32:51.106Z,99.90
2018-05-14T00:35:18.903Z,99.90
2018-05-14T00:37:46.545Z,99.90
2018-05-14T00:40:14.088Z,99.90
2018-05-14T00:42:42.071Z,99.90
2018-05-14T00:45:09.983Z,99.90
2018-05-14T00:47:38.285Z,99.90
2018-05-14T00:50:05.834Z,99.90
2018-05-14T00:52:33.417Z,99.90
2018-05-14T00:55:12.933Z,99.90
2018-05-14T00:57:41.227Z,99.90
2018-05-14T01:00:08.762Z,99.90
2018-05-14T01:02:37.080Z,99.90
2018-05-14T01:05:04.611Z,99.90
2018-05-14T01:07:32.142Z,99.90
2018-05-14T01:10:00.460Z,99.90
2018-05-14T01:12:27.996Z,99.90
2018-05-14T01:14:55.522Z,99.90
2018-05-14T01:17:23.153Z,99.90
2018-05-14T01:19:50.705Z,99.90
2018-05-14T01:22:18.253Z,99.90
2018-05-14T01:24:51.424Z,99.90
2018-05-14T01:27:19.409Z,99.90
2018-05-14T01:29:47.762Z,99.90
2018-05-14T01:32:16.084Z,99.90
2018-05-14T01:34:43.626Z,99.90
2018-05-14T01:37:11.180Z,99.90
2018-05-14T01:39:38.745Z,99.90
2018-05-14T01:42:06.303Z,99.90
2018-05-14T01:44:33.836Z,99.90
2018-05-14T01:47:01.761Z,99.90
2018-05-14T01:49:29.290Z,99.90
2018-05-14T01:51:56.838Z,99.90
2018-05-14T01:54:24.397Z,99.90
2018-05-14T01:56:51.953Z,99.90
2018-05-14T01:59:19.512Z,99.90
2018-05-14T02:01:47.066Z,99.90
2018-05-14T02:04:14.634Z,99.90
2018-05-14T02:06:42.155Z,99.90
2018-05-14T02:09:10.473Z,99.90
2018-05-14T02:11:38.030Z,99.90
2018-05-14T02:14:05.550Z,99.90
2018-05-14T02:16:33.870Z,99.90
2018-05-14T02:19:01.399Z,99.90
2018-05-14T02:21:28.918Z,99.90
2018-05-14T02:23:56.479Z,99.90
2018-05-14T02:26:26.416Z,99.90
2018-05-14T02:28:54.726Z,99.90
2018-05-14T02:31:22.295Z,99.90
2018-05-14T02:33:49.848Z,99.90
2018-05-14T02:36:17.382Z,99.90
2018-05-14T02:38:44.963Z,99.90
2018-05-14T02:41:12.492Z,99.90
2018-05-14T02:43:40.032Z,99.90
2018-05-14T02:46:08.454Z,99.90
2018-05-14T02:48:36.001Z,99.90
2018-05-14T02:51:03.544Z,99.90
2018-05-14T02:53:31.876Z,99.90
2018-05-14T02:55:59.401Z,99.90
2018-05-14T02:58:26.942Z,99.90
2018-05-14T03:00:55.259Z,99.90
2018-05-14T03:03:22.791Z,99.90
2018-05-14T03:05:50.324Z,99.90
2018-05-14T03:08:18.655Z,99.90
2018-05-14T03:10:46.291Z,99.90
2018-05-14T03:13:13.884Z,99.90
2018-05-14T03:15:41.451Z,99.90
2018-05-14T03:18:09.781Z,99.90
2018-05-14T03:20:37.312Z,99.90
2018-05-14T03:23:05.623Z,99.90
2018-05-14T03:25:33.189Z,99.90
2018-05-14T03:28:00.709Z,99.90
2018-05-14T03:30:29.048Z,99.90
2018-05-14T03:32:56.581Z,99.90
2018-05-14T03:35:24.117Z,99.90
2018-05-14T03:37:51.680Z,99.90
2018-05-14T03:40:19.250Z,99.90
2018-05-14T03:42:46.804Z,99.90
2018-05-14T03:45:14.346Z,99.90
2018-05-14T03:47:41.879Z,99.90
2018-05-14T03:50:10.209Z,99.90
2018-05-14T03:52:37.877Z,99.90
2018-05-14T03:55:05.401Z,99.90
2018-05-14T03:57:32.977Z,99.90
2018-05-14T04:00:12.417Z,99.90
2018-05-14T04:02:51.877Z,99.90
2018-05-14T04:05:19.620Z,99.90
2018-05-14T04:07:47.153Z,99.90
2018-05-14T04:10:14.735Z,99.90
2018-05-14T04:12:42.281Z,99.90
2018-05-14T04:15:10.653Z,99.90
2018-05-14T04:17:38.169Z,99.90
2018-05-14T04:20:05.806Z,99.90
2018-05-14T04:22:33.354Z,99.90
2018-05-14T04:25:00.901Z,99.90
2018-05-14T04:27:28.447Z,99.90
2018-05-14T04:29:56.024Z,99.90
2018-05-14T04:32:23.549Z,99.90
2018-05-14T04:34:51.877Z,99.90
2018-05-14T04:37:19.425Z,99.90
2018-05-14T04:39:46.978Z,99.90
2018-05-14T04:42:14.540Z,99.90
2018-05-14T04:44:42.069Z,99.90
2018-05-14T04:47:09.607Z,99.90
2018-05-14T04:49:37.917Z,99.90
2018-05-14T04:52:05.477Z,99.90
2018-05-14T04:54:33.059Z,99.90
2018-05-14T04:57:00.797Z,99.90
2018-05-14T04:59:28.375Z,99.90
2018-05-14T05:01:55.952Z,99.90
2018-05-14T05:04:23.500Z,99.90
2018-05-14T05:06:51.021Z,99.90
2018-05-14T05:09:18.614Z,99.90
2018-05-14T05:11:46.257Z,99.90
2018-05-14T05:14:13.795Z,99.90
2018-05-14T05:16:41.317Z,99.90
2018-05-14T05:19:08.937Z,99.90
2018-05-14T05:21:36.487Z,99.90
2018-05-14T05:24:04.006Z,99.90
2018-05-14T05:26:31.571Z,99.90
2018-05-14T05:28:59.866Z,99.90
2018-05-14T05:31:27.445Z,99.90
2018-05-14T05:33:54.996Z,99.90
2018-05-14T05:36:22.566Z,99.90
2018-05-14T05:38:50.107Z,99.90
2018-05-14T05:41:17.672Z,99.90
2018-05-14T05:43:45.201Z,99.90
2018-05-14T05:46:13.533Z,99.90
2018-05-14T05:48:41.129Z,99.90
2018-05-14T05:51:09.464Z,99.90
2018-05-14T05:53:36.992Z,99.90
2018-05-14T05:56:04.555Z,99.90
2018-05-14T05:58:32.096Z,99.90
2018-05-14T06:01:00.403Z,99.90
2018-05-14T06:03:27.964Z,99.90
2018-05-14T06:05:55.485Z,99.90
2018-05-14T06:08:23.780Z,99.90
2018-05-14T06:10:51.371Z,99.90
2018-05-14T06:13:18.912Z,99.90
2018-05-14T06:15:46.468Z,99.90
2018-05-14T06:18:14.039Z,99.90
2018-05-14T06:20:41.578Z,99.90
2018-05-14T06:23:09.155Z,99.90
2018-05-14T06:25:36.811Z,99.90
2018-05-14T06:28:04.367Z,99.90
2018-05-14T06:30:31.916Z,99.90
2018-05-14T06:32:59.494Z,99.90
2018-05-14T06:35:27.061Z,99.90
2018-05-14T06:37:54.569Z,99.90
2018-05-14T06:40:22.885Z,99.90
2018-05-14T06:42:50.429Z,99.90
2018-05-14T06:45:17.971Z,99.90
2018-05-14T06:47:45.523Z,99.90
2018-05-14T06:50:13.870Z,99.90
2018-05-14T06:52:41.492Z,99.90
2018-05-14T06:55:09.297Z,99.90
2018-05-14T06:57:36.825Z,99.90
2018-05-14T07:00:04.338Z,99.90
2018-05-14T07:02:32.753Z,99.90
2018-05-14T07:05:00.325Z,99.90
2018-05-14T07:07:27.841Z,99.90
2018-05-14T07:09:56.156Z,99.90
2018-05-14T07:12:23.687Z,99.90
2018-05-14T07:14:51.431Z,99.90
2018-05-14T07:17:18.818Z,99.90
2018-05-14T07:19:46.358Z,99.90
2018-05-14T07:22:13.884Z,99.90
2018-05-14T07:24:41.559Z,99.90
2018-05-14T07:27:09.050Z,99.90
2018-05-14T07:29:36.624Z,99.90
2018-05-14T07:32:04.283Z,99.90
2018-05-14T07:34:31.797Z,99.90
2018-05-14T07:37:00.127Z,99.90
2018-05-14T07:39:27.674Z,99.90
2018-05-14T07:41:55.239Z,99.90
2018-05-14T07:44:22.777Z,99.90
2018-05-14T07:46:50.359Z,99.90
2018-05-14T07:49:17.896Z,99.90
2018-05-14T07:51:45.422Z,99.90
2018-05-14T07:54:13.733Z,99.90
2018-05-14T07:56:41.273Z,99.90
2018-05-14T07:59:08.793Z,99.90
2018-05-14T08:01:36.424Z,99.90
2018-05-14T08:04:04.010Z,99.90
2018-05-14T08:06:31.541Z,99.90
2018-05-14T08:08:59.115Z,99.90
2018-05-14T08:11:26.739Z,99.90
2018-05-14T08:13:54.323Z,99.90
2018-05-14T08:16:21.865Z,99.90
2018-05-14T08:18:49.418Z,99.90
2018-05-14T08:21:16.941Z,99.90
2018-05-14T08:23:45.265Z,99.90
2018-05-14T08:26:12.805Z,99.90
2018-05-14T08:28:40.381Z,99.90
2018-05-14T08:31:07.955Z,99.90
2018-05-14T08:33:35.489Z,99.90
2018-05-14T08:36:03.019Z,99.90
2018-05-14T08:38:31.399Z,99.90
2018-05-14T08:40:59.701Z,99.90
2018-05-14T08:43:27.225Z,99.90
2018-05-14T08:45:55.636Z,99.90
2018-05-14T08:48:23.156Z,99.90
2018-05-14T08:50:51.479Z,99.90
2018-05-14T08:53:19.050Z,99.90
2018-05-14T08:55:46.583Z,99.90
2018-05-14T08:58:14.469Z,99.90
2018-05-14T09:00:42.098Z,99.90
2018-05-14T09:03:10.777Z,99.90
2018-05-14T09:05:39.072Z,99.90
2018-05-14T09:08:06.650Z,99.90
2018-05-14T09:10:34.195Z,99.90
2018-05-14T09:13:01.754Z,99.90
2018-05-14T09:15:29.301Z,99.90
2018-05-14T09:17:56.836Z,99.90
2018-05-14T09:20:25.162Z,99.90
2018-05-14T09:22:52.791Z,99.90
2018-05-14T09:25:20.313Z,99.90
2018-05-14T09:27:47.898Z,99.90
2018-05-14T09:30:16.212Z,99.90
2018-05-14T09:32:43.776Z,99.90
2018-05-14T09:35:11.360Z,99.90
2018-05-14T09:37:38.983Z,99.90
2018-05-14T09:40:06.562Z,99.90
2018-05-14T09:42:34.197Z,99.90
2018-05-14T09:45:01.756Z,99.90
2018-05-14T09:47:29.330Z,99.90
2018-05-14T09:49:56.873Z,99.90
2018-05-14T09:52:24.437Z,99.90
2018-05-14T09:54:51.977Z,99.90
2018-05-14T09:57:19.579Z,99.90
2018-05-14T09:59:47.262Z,99.90
2018-05-14T10:02:15.553Z,99.90
2018-05-14T10:04:43.851Z,99.90
2018-05-14T10:07:11.407Z,99.90
2018-05-14T10:09:38.933Z,99.90
2018-05-14T10:12:06.542Z,99.90
2018-05-14T10:14:34.099Z,99.90
2018-05-14T10:17:01.662Z,99.90
2018-05-14T10:19:29.216Z,99.90
2018-05-14T10:21:56.779Z,99.90
2018-05-14T10:24:24.303Z,99.90
2018-05-14T10:26:52.619Z,99.90
2018-05-14T10:29:20.288Z,99.90
2018-05-14T10:31:47.848Z,99.90
2018-05-14T10:34:15.405Z,99.90
2018-05-14T10:36:43.059Z,99.90
2018-05-14T10:39:10.610Z,99.90
2018-05-14T10:41:38.173Z,99.90
2018-05-14T10:44:05.829Z,99.90
2018-05-14T10:46:33.359Z,99.90
2018-05-14T10:49:01.870Z,99.90
2018-05-14T10:51:29.436Z,99.90
2018-05-14T10:53:58.191Z,99.90
2018-05-14T10:56:25.718Z,99.90
2018-05-14T10:58:53.273Z,99.90
2018-05-14T11:01:20.992Z,99.90
2018-05-14T11:03:48.961Z,99.90
2018-05-14T11:06:16.526Z,99.90
2018-05-14T11:08:44.089Z,99.90
2018-05-14T11:11:14.010Z,99.90
2018-05-14T11:13:42.242Z,99.90
2018-05-14T11:16:09.840Z,99.90
2018-05-14T11:18:37.573Z,99.90
2018-05-14T11:21:05.895Z,99.90
2018-05-14T11:23:33.461Z,99.90
2018-05-14T11:26:02.264Z,99.90
2018-05-14T11:28:29.904Z,99.90
2018-05-14T11:30:58.959Z,99.90
2018-05-14T11:33:26.731Z,99.90
2018-05-14T11:35:54.298Z,99.90
2018-05-14T11:38:22.157Z,99.90
2018-05-14T11:40:49.977Z,99.90
2018-05-14T11:43:19.570Z,99.90
2018-05-14T11:45:48.013Z,99.90
2018-05-14T11:48:15.676Z,99.90
2018-05-14T11:50:47.326Z,99.90
2018-05-14T11:53:14.944Z,99.90
2018-05-14T11:55:42.867Z,99.90
2018-05-14T11:58:11.288Z,99.90
2018-05-14T12:00:39.665Z,99.90
2018-05-14T12:03:08.496Z,99.90
2018-05-14T12:05:36.337Z,99.90
2018-05-14T12:08:04.950Z,99.90
2018-05-14T12:10:33.349Z,99.90
2018-05-14T12:13:00.984Z,99.90
2018-05-14T12:15:28.494Z,99.90
2018-05-14T12:17:56.359Z,99.90
2018-05-14T12:20:24.679Z,99.90
2018-05-14T12:22:52.189Z,99.90
2018-05-14T12:25:19.726Z,99.90
2018-05-14T12:27:47.358Z,99.20
2018-05-14T12:30:14.864Z,97.00
2018-05-14T12:32:42.489Z,93.60
2018-05-14T12:35:10.125Z,92.60
2018-05-14T12:37:37.815Z,92.30
2018-05-14T12:40:05.387Z,90.40
2018-05-14T12:42:33.018Z,87.90
2018-05-14T12:45:00.541Z,83.50
2018-05-14T12:47:28.826Z,78.40
2018-05-14T12:49:57.150Z,76.70
2018-05-14T12:52:24.703Z,76.40
2018-05-14T12:54:52.249Z,77.00
2018-05-14T12:57:19.910Z,74.10
2018-05-14T12:59:47.358Z,75.00
2018-05-14T13:02:15.477Z,70.50
2018-05-14T13:04:43.807Z,68.50
2018-05-14T13:07:11.338Z,68.50
2018-05-14T13:09:39.626Z,68.10
2018-05-14T13:12:07.173Z,68.00
2018-05-14T13:14:35.452Z,62.10
2018-05-14T13:17:03.760Z,59.90
2018-05-14T13:19:31.437Z,59.80
2018-05-14T13:21:58.954Z,58.40
2018-05-14T13:24:27.263Z,60.10
2018-05-14T13:26:54.830Z,60.00
2018-05-14T13:29:22.365Z,58.00
2018-05-14T13:31:49.907Z,58.10
2018-05-14T13:34:17.499Z,54.70
2018-05-14T13:36:45.046Z,55.70
2018-05-14T13:39:12.607Z,54.10
2018-05-14T13:41:40.141Z,53.00
2018-05-14T13:44:08.472Z,53.40
2018-05-14T13:46:35.999Z,53.40
2018-05-14T13:49:03.560Z,54.20
2018-05-14T13:51:31.093Z,54.80
2018-05-14T13:53:59.391Z,55.00
2018-05-14T13:56:27.059Z,54.90
2018-05-14T13:58:54.574Z,53.90
2018-05-14T14:01:23.004Z,52.10
2018-05-14T14:03:50.572Z,52.10
2018-05-14T14:06:18.100Z,53.50
2018-05-14T14:08:45.616Z,55.30
2018-05-14T14:11:13.224Z,53.50
2018-05-14T14:13:40.743Z,53.90
2018-05-14T14:16:09.056Z,52.20
2018-05-14T14:18:36.595Z,52.20
2018-05-14T14:21:04.124Z,52.00
2018-05-14T14:23:32.612Z,52.30
2018-05-14T14:26:00.165Z,51.70
2018-05-14T14:28:28.472Z,51.60
2018-05-14T14:30:55.999Z,51.60
2018-05-14T14:33:24.313Z,51.00
2018-05-14T14:35:51.969Z,51.00
2018-05-14T14:38:19.454Z,49.50
2018-05-14T14:40:47.117Z,48.50
2018-05-14T14:43:14.642Z,49.20
2018-05-14T14:45:42.219Z,49.20
2018-05-14T14:48:09.784Z,48.90
2018-05-14T14:50:37.359Z,49.30
2018-05-14T14:53:04.912Z,46.30
2018-05-14T14:55:33.276Z,48.00
2018-05-14T14:58:00.841Z,47.30
2018-05-14T15:00:28.363Z,46.60
2018-05-14T15:02:56.669Z,45.90
2018-05-14T15:05:24.251Z,45.90
2018-05-14T15:07:51.765Z,45.90
2018-05-14T15:10:19.346Z,46.40
2018-05-14T15:12:46.877Z,46.10
2018-05-14T15:15:15.185Z,44.70
2018-05-14T15:17:42.814Z,44.70
2018-05-14T15:20:11.132Z,45.10
2018-05-14T15:22:38.648Z,45.00
2018-05-14T15:25:07.066Z,44.90
2018-05-14T15:27:34.636Z,44.90
2018-05-14T15:30:02.162Z,45.50
2018-05-14T15:32:29.732Z,45.00
2018-05-14T15:34:57.295Z,45.00
2018-05-14T15:37:24.841Z,45.80
2018-05-14T15:39:52.395Z,44.70
2018-05-14T15:42:19.958Z,44.70
2018-05-14T15:44:47.506Z,43.90
2018-05-14T15:47:15.050Z,44.10
2018-05-14T15:49:43.368Z,43.70
2018-05-14T15:52:10.865Z,43.60
2018-05-14T15:54:39.212Z,42.80
2018-05-14T15:57:06.753Z,42.80
2018-05-14T15:59:34.309Z,43.90
2018-05-14T16:02:01.979Z,43.10
2018-05-14T16:04:29.494Z,42.10
2018-05-14T16:06:57.817Z,42.80
2018-05-14T16:09:25.361Z,42.70
2018-05-14T16:11:52.901Z,41.70
2018-05-14T16:14:20.478Z,41.70
2018-05-14T16:16:48.037Z,41.60
2018-05-14T16:19:15.605Z,42.10
2018-05-14T16:21:43.135Z,42.40
2018-05-14T16:24:10.704Z,42.10
2018-05-14T16:26:38.242Z,41.70
2018-05-14T16:29:05.795Z,40.90
2018-05-14T16:31:34.225Z,42.30
2018-05-14T16:34:02.341Z,42.30
2018-05-14T16:36:30.625Z,41.80
2018-05-14T16:38:58.920Z,41.50
2018-05-14T16:41:26.545Z,41.40
2018-05-14T16:43:54.064Z,41.40
2018-05-14T16:46:21.624Z,41.90
2018-05-14T16:48:49.486Z,41.20
2018-05-14T16:51:17.766Z,41.80
2018-05-14T16:53:45.339Z,43.80
2018-05-14T16:56:12.877Z,44.90
2018-05-14T16:58:40.426Z,47.40
2018-05-14T17:01:07.986Z,47.90
2018-05-14T17:03:35.560Z,49.30
2018-05-14T17:06:03.095Z,50.90
2018-05-14T17:08:30.650Z,52.50
2018-05-14T17:10:58.236Z,51.90
2018-05-14T17:13:25.985Z,52.30
2018-05-14T17:15:53.555Z,51.90
2018-05-14T17:18:21.109Z,51.40
2018-05-14T17:20:48.633Z,53.10
2018-05-14T17:23:16.979Z,53.50
2018-05-14T17:25:44.504Z,53.40
2018-05-14T17:28:12.063Z,54.70
2018-05-14T17:30:39.646Z,54.70
2018-05-14T17:33:07.286Z,56.40
2018-05-14T17:35:34.806Z,55.80
2018-05-14T17:38:03.132Z,54.80
2018-05-14T17:40:30.679Z,54.60
2018-05-14T17:42:58.256Z,53.30
2018-05-14T17:45:25.810Z,54.20
2018-05-14T17:47:53.322Z,52.80
2018-05-14T17:50:21.642Z,50.40
2018-05-14T17:52:49.187Z,50.40
2018-05-14T17:55:18.283Z,51.80
2018-05-14T17:57:45.807Z,52.20
2018-05-14T18:00:13.363Z,52.60
2018-05-14T18:02:41.685Z,53.90
2018-05-14T18:05:09.301Z,53.90
2018-05-14T18:07:36.793Z,56.50
2018-05-14T18:10:04.317Z,56.40
2018-05-14T18:12:32.632Z,56.30
2018-05-14T18:15:00.296Z,56.20
2018-05-14T18:17:27.991Z,56.70
2018-05-14T18:20:01.323Z,57.10
2018-05-14T18:22:30.755Z,57.60
2018-05-14T18:25:04.231Z,58.80
2018-05-14T18:27:31.729Z,58.70
2018-05-14T18:33:02.940Z,60.70
2018-05-14T18:35:36.715Z,61.20
2018-05-14T18:38:05.033Z,63.30
2018-05-14T18:40:33.389Z,63.10
2018-05-14T18:43:02.026Z,65.70
2018-05-14T18:45:30.912Z,65.60
2018-05-14T18:47:58.424Z,67.60
2018-05-14T18:50:26.759Z,69.20
2018-05-14T18:52:54.461Z,69.20
2018-05-14T18:55:22.770Z,71.70
2018-05-14T18:57:50.349Z,71.70
2018-05-14T19:00:17.858Z,73.40
2018-05-14T19:02:45.543Z,74.40
2018-05-14T19:05:13.135Z,75.70
2018-05-14T19:07:40.677Z,76.80
2018-05-14T19:10:13.989Z,77.70
2018-05-14T19:12:41.609Z,78.20
2018-05-14T19:15:14.795Z,78.80
2018-05-14T19:17:48.138Z,79.30
2018-05-14T19:20:15.685Z,78.60
2018-05-14T19:22:49.050Z,79.00
2018-05-14T19:25:16.672Z,78.80
2018-05-14T19:27:50.820Z,79.10
2018-05-14T19:30:18.368Z,79.00
2018-05-14T19:32:46.514Z,79.00
2018-05-14T19:35:20.435Z,80.50
2018-05-14T19:37:48.727Z,79.30
2018-05-14T19:40:22.049Z,79.20
2018-05-14T19:42:49.604Z,79.20
2018-05-14T19:45:17.151Z,79.40
2018-05-14T19:47:44.821Z,80.00
2018-05-14T19:50:12.398Z,80.00
2018-05-14T19:52:40.033Z,80.00
2018-05-14T19:55:07.599Z,80.10
2018-05-14T19:57:35.189Z,80.10
2018-05-14T20:00:02.900Z,80.20
2018-05-14T20:02:30.472Z,80.80
2018-05-14T20:04:58.006Z,82.00
2018-05-14T20:07:25.589Z,81.40
2018-05-14T20:09:53.151Z,82.00
2018-05-14T20:12:20.904Z,82.50
2018-05-14T20:14:48.477Z,83.00
2018-05-14T20:17:16.040Z,82.90
2018-05-14T20:19:43.569Z,82.50
2018-05-14T20:22:11.145Z,82.80
2018-05-14T20:24:38.687Z,83.40
2018-05-14T20:27:06.215Z,83.60
2018-05-14T20:29:33.738Z,82.40
2018-05-14T20:32:01.308Z,84.30
2018-05-14T20:34:28.834Z,83.70
2018-05-14T20:36:56.391Z,84.80
2018-05-14T20:39:24.058Z,84.40
2018-05-14T20:41:51.588Z,84.20
2018-05-14T20:44:19.883Z,84.50
2018-05-14T20:46:47.453Z,84.40
2018-05-14T20:49:14.980Z,84.10
2018-05-14T20:51:43.267Z,86.80
2018-05-14T20:54:10.822Z,86.70
2018-05-14T20:56:38.364Z,86.60
2018-05-14T20:59:06.719Z,87.70
2018-05-14T21:01:34.279Z,87.60
2018-05-14T21:04:02.345Z,87.30
2018-05-14T21:06:29.859Z,88.10
2018-05-14T21:08:58.817Z,88.70
2018-05-14T21:11:27.236Z,89.30
2018-05-14T21:13:54.777Z,88.50
2018-05-14T21:16:22.340Z,89.00
2018-05-14T21:18:49.864Z,89.10
2018-05-14T21:21:18.419Z,90.20
2018-05-14T21:23:45.988Z,90.10
2018-05-14T21:26:13.621Z,90.80
2018-05-14T21:28:41.148Z,91.00
2018-05-14T21:31:08.717Z,90.70
2018-05-14T21:33:36.245Z,91.10
2018-05-14T21:36:04.526Z,91.50
2018-05-14T21:38:32.838Z,92.00
2018-05-14T21:41:00.354Z,91.90
2018-05-14T21:43:27.913Z,92.20
2018-05-14T21:45:56.236Z,92.90
2018-05-14T21:48:23.752Z,92.80
2018-05-14T21:50:52.034Z,93.80
2018-05-14T21:53:20.342Z,94.30
2018-05-14T21:55:47.877Z,94.60
2018-05-14T21:58:16.189Z,95.00
2018-05-14T22:00:43.765Z,94.90
2018-05-14T22:03:11.299Z,94.90
2018-05-14T22:05:53.821Z,95.20
2018-05-14T22:08:21.343Z,96.60
2018-05-14T22:10:48.875Z,96.80
2018-05-14T22:13:16.428Z,97.40
2018-05-14T22:15:44.066Z,99.10
2018-05-14T22:18:11.678Z,98.60
2018-05-14T22:20:39.281Z,99.50
2018-05-14T22:23:06.820Z,99.50
2018-05-14T22:25:34.387Z,99.90
2018-05-14T22:28:01.950Z,99.90
2018-05-14T22:30:29.511Z,99.90
2018-05-14T22:32:57.033Z,99.90
2018-05-14T22:35:24.633Z,99.90
2018-05-14T22:37:53.117Z,99.90
2018-05-14T22:40:20.651Z,99.90
2018-05-14T22:42:48.209Z,99.90
2018-05-14T22:45:15.805Z,99.90
2018-05-14T22:47:43.449Z,99.90
2018-05-14T22:50:10.986Z,99.90
2018-05-14T22:52:38.522Z,99.90
2018-05-14T22:55:06.834Z,99.90
2018-05-14T22:57:34.375Z,99.90
2018-05-14T23:00:01.895Z,99.90
2018-05-14T23:02:29.432Z,99.90
2018-05-14T23:04:56.983Z,99.90
2018-05-14T23:07:24.507Z,99.90
2018-05-14T23:09:52.020Z,99.90
2018-05-14T23:12:19.579Z,99.90
2018-05-14T23:14:47.100Z,99.90
2018-05-14T23:17:14.656Z,99.90
2018-05-14T23:19:42.215Z,99.90
2018-05-14T23:22:10.527Z,99.90
2018-05-14T23:24:38.041Z,99.90
2018-05-14T23:27:05.589Z,99.90
2018-05-14T23:29:33.117Z,99.90
2018-05-14T23:32:01.421Z,99.90
2018-05-14T23:34:28.994Z,99.90
2018-05-14T23:36:56.516Z,99.90
2018-05-14T23:39:24.834Z,99.90
2018-05-14T23:41:52.486Z,99.90
2018-05-14T23:44:20.043Z,99.90
2018-05-14T23:46:47.558Z,99.90
2018-05-14T23:49:15.889Z,99.90
2018-05-14T23:51:43.415Z,99.90
2018-05-14T23:54:10.957Z,99.90
2018-05-14T23:56:39.491Z,99.90
2018-05-14T23:59:07.019Z,99.90
